Time;durP1;ratioP1;P1;durP2;ratioP2;P2;SDS_P1;SDS_P2;PMS_P1;PMS_P2;Temp;Humidity;BMP_temperature;BMP_pressure;BME280_temperature;BME280_humidity;BME280_pressure;Samples;Min_cycle;Max_cycle;Signal;HPM_P1;HPM_P2
2022/07/20 00:00:58;;;;;;;15.00;5.30;;;;;;;22.36;44.75;101012.64;123389;1099;104319;-78
2022/07/20 00:03:31;;;;;;;12.37;4.37;;;;;;;22.30;45.72;101015.34;123979;1099;104282;-79
2022/07/20 00:06:03;;;;;;;13.25;5.00;;;;;;;22.19;46.02;101020.70;123660;1099;104267;-78
2022/07/20 00:11:23;;;;;;;12.00;4.40;;;;;;;22.00;46.83;101021.65;123592;1099;104341;-78
2022/07/20 00:13:58;;;;;;;11.23;4.50;;;;;;;21.92;46.79;101019.00;123578;1099;104368;-79
2022/07/20 00:16:34;;;;;;;11.17;5.17;;;;;;;21.83;46.73;101009.25;123548;1099;104829;-78
2022/07/20 00:19:06;;;;;;;15.07;5.30;;;;;;;21.76;46.67;101018.16;123590;1099;104281;-78
2022/07/20 00:21:38;;;;;;;9.15;4.45;;;;;;;21.70;47.26;101023.51;123586;1099;104293;-78
2022/07/20 00:24:11;;;;;;;15.17;5.00;;;;;;;21.65;46.98;101015.50;123645;1099;104297;-77
2022/07/20 00:26:42;;;;;;;10.27;4.70;;;;;;;21.56;47.22;101014.64;123545;1099;104414;-78
2022/07/20 00:29:14;;;;;;;12.90;5.03;;;;;;;21.49;48.45;101013.77;123594;1099;104415;-78
2022/07/20 00:31:45;;;;;;;10.20;4.50;;;;;;;21.43;48.00;101011.95;123681;1099;104262;-78
2022/07/20 00:34:17;;;;;;;12.97;4.63;;;;;;;21.37;47.85;101018.17;123664;1099;104846;-78
2022/07/20 00:36:48;;;;;;;9.33;4.63;;;;;;;21.31;48.56;101014.62;123697;1099;104251;-78
2022/07/20 00:39:20;;;;;;;14.07;4.57;;;;;;;21.25;49.20;101006.61;123623;1099;104226;-78
2022/07/20 00:41:51;;;;;;;12.93;4.87;;;;;;;21.18;49.93;101006.61;123532;1098;104399;-78
2022/07/20 00:44:23;;;;;;;14.67;5.20;;;;;;;21.14;49.17;101006.61;123564;1098;104380;-78
2022/07/20 00:46:56;;;;;;;11.50;4.40;;;;;;;21.06;49.56;101003.06;123520;1099;104262;-76
2022/07/20 00:49:28;;;;;;;17.37;4.87;;;;;;;20.99;50.48;100991.51;123579;1099;104178;-78
2022/07/20 00:51:59;;;;;;;10.57;4.63;;;;;;;20.91;50.27;100991.50;123542;1099;104329;-78
2022/07/20 00:54:32;;;;;;;10.00;4.33;;;;;;;20.88;50.63;100987.92;123528;1099;104322;-78
2022/07/20 00:57:04;;;;;;;12.57;4.70;;;;;;;20.85;50.20;100987.91;123595;1099;104303;-78
2022/07/20 00:59:35;;;;;;;17.23;4.87;;;;;;;20.77;49.81;100986.15;123523;1099;104304;-78
2022/07/20 01:02:07;;;;;;;8.23;4.60;;;;;;;20.73;50.11;100987.02;123605;1099;104312;-78
2022/07/20 01:04:39;;;;;;;10.57;4.40;;;;;;;20.67;50.70;100979.01;123649;1099;104712;-78
2022/07/20 01:07:10;;;;;;;13.73;4.77;;;;;;;20.67;50.11;100968.34;123579;1099;104300;-79
2022/07/20 01:09:42;;;;;;;10.03;4.77;;;;;;;20.65;50.30;100972.80;123579;1098;104313;-77
2022/07/20 01:12:13;;;;;;;10.10;4.53;;;;;;;20.64;50.22;100978.97;123619;1099;104216;-77
2022/07/20 01:14:45;;;;;;;13.63;4.73;;;;;;;20.59;51.10;100981.63;123573;1099;104230;-78
2022/07/20 01:17:17;;;;;;;10.17;4.50;;;;;;;20.55;50.40;100978.95;123594;1099;104270;-78
2022/07/20 01:19:48;;;;;;;10.03;4.07;;;;;;;20.50;51.19;100973.60;123563;1099;104388;-78
2022/07/20 01:22:20;;;;;;;9.13;4.40;;;;;;;20.46;51.27;100975.38;123727;1099;104341;-78
2022/07/20 01:24:51;;;;;;;10.83;4.03;;;;;;;20.44;51.16;100973.59;123524;1099;104279;-78
2022/07/20 01:27:23;;;;;;;14.77;5.17;;;;;;;20.41;51.19;100971.83;123598;1099;104236;-78
2022/07/20 01:29:54;;;;;;;12.30;4.10;;;;;;;20.41;51.01;100977.16;123602;1099;104731;-78
2022/07/20 01:32:25;;;;;;;14.27;4.80;;;;;;;20.39;51.40;100976.23;123532;1099;108165;-78
2022/07/20 01:34:57;;;;;;;8.60;4.27;;;;;;;20.37;51.27;100972.69;123613;1099;104248;-78
2022/07/20 01:37:29;;;;;;;9.37;4.63;;;;;;;20.35;51.55;100974.47;123942;1099;104725;-78
2022/07/20 01:40:01;;;;;;;11.37;4.67;;;;;;;20.35;51.41;100982.47;123621;1099;104239;-77
2022/07/20 01:42:33;;;;;;;12.63;5.07;;;;;;;20.35;52.45;100971.81;123567;1099;104239;-78
2022/07/20 01:45:05;;;;;;;13.70;5.00;;;;;;;20.33;52.03;100968.23;123534;1099;104412;-78
2022/07/20 01:47:36;;;;;;;11.77;4.70;;;;;;;20.27;51.78;100970.88;123711;1098;104328;-78
2022/07/20 01:50:10;;;;;;;10.23;4.27;;;;;;;20.26;51.92;100966.45;123607;1099;104380;-78
2022/07/20 01:52:40;;;;;;;;;;;;;;;20.20;51.88;100963.77;123637;1099;104185;-78
2022/07/20 01:55:12;;;;;;;10.70;4.57;;;;;;;20.15;52.53;100968.16;123523;1099;104242;-77
2022/07/20 01:57:43;;;;;;;10.10;4.73;;;;;;;20.14;51.89;100966.41;123497;1099;104393;-78
2022/07/20 02:00:16;;;;;;;10.47;4.53;;;;;;;20.11;52.31;100968.15;123556;1099;104300;-78
2022/07/20 02:02:48;;;;;;;10.55;4.80;;;;;;;20.09;52.54;100969.92;123618;1099;104695;-78
2022/07/20 02:05:20;;;;;;;11.00;4.40;;;;;;;20.06;53.69;100964.59;123558;1099;104347;-78
2022/07/20 02:07:51;;;;;;;13.70;5.20;;;;;;;20.03;53.33;100963.70;123555;1099;104280;-78
2022/07/20 02:10:23;;;;;;;13.45;4.50;;;;;;;19.99;53.15;100967.22;123502;1099;104482;-79
2022/07/20 02:12:54;;;;;;;11.20;4.83;;;;;;;19.95;53.14;100966.33;123679;1099;104257;-78
2022/07/20 02:18:17;;;;;;;14.27;5.40;;;;;;;19.75;54.36;100972.39;123395;1099;104259;-78
2022/07/20 02:20:49;;;;;;;16.93;5.43;;;;;;;19.67;54.42;100974.12;123603;1099;104252;-78
2022/07/20 02:23:20;;;;;;;11.37;4.70;;;;;;;19.61;54.90;100974.09;123494;1099;104389;-78
2022/07/20 02:25:52;;;;;;;12.77;4.80;;;;;;;19.56;53.93;100971.40;123560;1099;104258;-78
2022/07/20 02:28:24;;;;;;;13.47;5.10;;;;;;;19.53;54.67;100974.05;123554;1099;104261;-78
2022/07/20 02:30:55;;;;;;;16.10;5.60;;;;;;;19.55;54.29;100976.71;123849;1099;104188;-78
2022/07/20 02:33:27;;;;;;;10.30;4.60;;;;;;;19.54;54.91;100967.85;123915;1099;104219;-78
2022/07/20 02:35:58;;;;;;;10.60;4.60;;;;;;;19.48;55.08;100969.59;123850;1099;104165;-79
2022/07/20 02:38:30;;;;;;;15.27;5.17;;;;;;;19.43;54.71;100965.98;123773;1099;104784;-78
2022/07/20 02:41:02;;;;;;;10.80;4.70;;;;;;;19.38;54.99;100977.52;123670;1099;104246;-78
2022/07/20 02:43:33;;;;;;;14.07;4.97;;;;;;;19.35;54.65;100976.58;123566;1098;105644;-78
2022/07/20 02:46:05;;;;;;;9.77;4.70;;;;;;;19.33;55.14;100975.69;123578;1099;104220;-78
2022/07/20 02:48:38;;;;;;;12.70;5.10;;;;;;;19.31;55.07;100978.33;123526;1099;104376;-78
2022/07/20 02:51:10;;;;;;;16.00;5.20;;;;;;;19.31;55.37;100972.13;123637;1099;104389;-78
2022/07/20 02:53:41;;;;;;;12.37;5.23;;;;;;;19.31;55.80;100983.66;123463;1099;104290;-78
2022/07/20 02:56:12;;;;;;;15.43;5.23;;;;;;;19.29;55.76;100980.10;123585;1098;104312;-78
2022/07/20 02:58:44;;;;;;;13.60;5.07;;;;;;;19.31;55.83;100978.33;123602;1099;104326;-78
2022/07/20 03:01:15;;;;;;;10.67;5.10;;;;;;;19.29;56.27;100980.10;123599;1099;104629;-78
2022/07/20 03:03:47;;;;;;;13.47;5.00;;;;;;;19.28;56.02;100983.63;123556;1099;104712;-78
2022/07/20 03:06:20;;;;;;;13.83;5.00;;;;;;;19.23;55.87;100974.73;123586;1099;104242;-78
2022/07/20 03:08:51;;;;;;;13.10;5.03;;;;;;;19.20;55.58;100982.69;123614;1099;104245;-78
2022/07/20 03:11:23;;;;;;;16.07;5.00;;;;;;;19.19;56.58;100988.88;123583;1099;104300;-78
2022/07/20 03:13:55;;;;;;;9.40;4.47;;;;;;;19.15;56.30;100981.73;123548;1099;104248;-77
2022/07/20 03:16:26;;;;;;;10.63;4.97;;;;;;;19.14;55.95;100988.84;123587;1099;104249;-77
2022/07/20 03:18:58;;;;;;;15.33;5.33;;;;;;;19.15;56.23;100989.72;123582;1099;104239;-77
2022/07/20 03:21:29;;;;;;;11.17;5.23;;;;;;;19.17;56.08;100987.98;123540;1099;104240;-77
2022/07/20 03:24:00;;;;;;;11.67;4.67;;;;;;;19.18;56.23;100985.34;123581;1099;104228;-77
2022/07/20 03:26:32;;;;;;;8.67;4.37;;;;;;;19.18;56.59;100995.06;123568;1099;104396;-77
2022/07/20 03:29:03;;;;;;;12.10;4.70;;;;;;;19.17;56.54;100993.30;123525;1099;104223;-78
2022/07/20 03:31:35;;;;;;;9.70;4.80;;;;;;;19.17;56.35;100994.19;123591;1099;104168;-78
2022/07/20 03:34:06;;;;;;;13.27;4.90;;;;;;;19.20;56.64;100990.67;123606;1099;104217;-78
2022/07/20 03:36:38;;;;;;;14.50;4.67;;;;;;;19.21;56.56;100988.02;123529;1099;104285;-78
2022/07/20 03:39:09;;;;;;;12.77;5.03;;;;;;;19.22;56.56;100992.44;123660;1099;104217;-78
2022/07/20 03:41:40;;;;;;;10.47;4.77;;;;;;;19.24;56.38;100995.12;123673;1099;104238;-78
2022/07/20 03:44:16;;;;;;;14.30;4.40;;;;;;;19.25;56.61;100996.03;123669;1099;104252;-78
2022/07/20 03:46:47;;;;;;;10.60;5.20;;;;;;;19.23;56.72;100996.02;123688;1099;104373;-77
2022/07/20 03:49:19;;;;;;;10.87;4.63;;;;;;;19.26;57.12;100995.12;123662;1099;104369;-78
2022/07/20 03:51:50;;;;;;;10.10;4.57;;;;;;;19.29;56.55;100996.06;123864;1099;104332;-79
2022/07/20 03:54:22;;;;;;;12.90;4.37;;;;;;;19.30;56.73;100997.83;123727;1099;104251;-78
2022/07/20 03:56:53;;;;;;;11.13;4.33;;;;;;;19.33;56.48;100991.65;123589;1098;104290;-79
2022/07/20 03:59:25;;;;;;;13.87;5.00;;;;;;;19.36;56.74;100989.89;123608;1099;104239;-78
2022/07/20 04:01:56;;;;;;;13.80;5.10;;;;;;;19.42;56.71;100990.84;123588;1098;104613;-79
2022/07/20 04:04:28;;;;;;;11.07;4.90;;;;;;;19.46;56.60;100990.88;123591;1099;104398;-77
2022/07/20 04:07:00;;;;;;;10.63;4.60;;;;;;;19.54;56.76;100990.89;123605;1099;104284;-78
2022/07/20 04:09:50;;;;;;;13.45;4.90;;;;;;;19.61;57.14;100987.40;123530;1099;104332;-78
2022/07/20 04:12:24;;;;;;;9.63;4.83;;;;;;;19.67;57.01;100986.56;123586;1099;104335;-77
2022/07/20 04:14:55;;;;;;;14.57;5.00;;;;;;;19.72;56.58;100995.45;123540;1099;104598;-78
2022/07/20 04:17:27;;;;;;;12.40;4.90;;;;;;;19.78;57.40;101006.17;123658;1099;104498;-78
2022/07/20 04:20:00;;;;;;;13.37;4.43;;;;;;;19.81;56.89;101003.53;123317;1099;104255;-78
2022/07/20 04:22:31;;;;;;;15.85;5.08;;;;;;;19.86;57.13;101009.77;123405;1099;104341;-78
2022/07/20 04:25:05;;;;;;;15.23;5.07;;;;;;;19.90;56.61;101008.03;123644;1099;104264;-79
2022/07/20 04:27:36;;;;;;;13.30;4.78;;;;;;;19.92;57.03;101001.81;123778;1098;104258;-78
2022/07/20 04:30:09;;;;;;;11.37;4.80;;;;;;;19.97;56.93;101006.28;123820;1099;104392;-78
2022/07/20 04:32:41;;;;;;;14.35;4.85;;;;;;;19.96;56.86;101010.73;123800;1099;104277;-77
2022/07/20 04:35:13;;;;;;;14.07;4.97;;;;;;;19.99;57.02;101009.83;123974;1099;104402;-78
2022/07/20 04:37:45;;;;;;;9.55;4.50;;;;;;;20.00;56.94;101012.50;124313;1099;104277;-79
2022/07/20 04:40:17;;;;;;;14.13;5.10;;;;;;;20.06;56.04;101009.87;124293;1099;104166;-76
2022/07/20 04:42:48;;;;;;;12.23;4.57;;;;;;;20.11;56.14;101004.56;124174;1099;104174;-78
2022/07/20 04:45:20;;;;;;;10.37;4.57;;;;;;;20.15;56.21;101000.13;124001;1099;104242;-77
2022/07/20 04:47:52;;;;;;;8.97;4.53;;;;;;;20.15;56.33;101002.80;123994;1099;104264;-77
2022/07/20 04:50:23;;;;;;;12.75;4.20;;;;;;;20.17;56.11;101006.37;123819;1099;104249;-77
2022/07/20 04:52:55;;;;;;;15.00;4.20;;;;;;;20.22;57.02;101004.61;123926;1099;104338;-79
2022/07/20 04:55:27;;;;;;;10.63;4.20;;;;;;;20.28;56.08;101001.97;124143;1099;104402;-78
2022/07/20 04:57:59;;;;;;;14.87;4.70;;;;;;;20.35;56.39;101005.55;124010;1099;104306;-78
2022/07/20 05:00:36;;;;;;;13.50;5.00;;;;;;;20.40;56.80;101002.02;124167;1099;104226;-80
2022/07/20 05:03:08;;;;;;;9.03;4.40;;;;;;;20.47;56.13;101003.83;124739;1099;104171;-78
2022/07/20 05:05:40;;;;;;;12.10;4.43;;;;;;;20.55;56.17;101002.94;124126;1099;104771;-78
2022/07/20 05:08:11;;;;;;;9.33;4.20;;;;;;;20.63;56.40;101001.17;123466;1099;104699;-78
2022/07/20 05:10:46;;;;;;;12.13;4.40;;;;;;;20.69;56.21;100992.34;123643;1099;104319;-79
2022/07/20 05:13:22;;;;;;;10.10;4.30;;;;;;;20.75;56.31;100984.36;124118;1099;104262;-79
2022/07/20 05:15:56;;;;;;;11.77;4.40;;;;;;;20.81;55.97;100995.91;123977;1099;104510;-79
2022/07/20 05:18:28;;;;;;;13.03;4.67;;;;;;;20.90;56.10;100992.38;124629;1099;104425;-80
2022/07/20 05:21:00;;;;;;;16.77;4.30;;;;;;;20.97;54.82;100996.84;124897;1102;104185;-83
2022/07/20 05:23:40;;;;;;;11.57;4.10;;;;;;;21.08;55.23;101006.61;124993;1099;104291;-81
2022/07/20 05:26:14;;;;;;;11.33;4.30;;;;;;;21.16;54.84;101007.49;125097;1102;104341;-80
2022/07/20 05:28:47;;;;;;;15.00;4.33;;;;;;;21.24;55.15;101007.49;125383;1099;103404;-78
2022/07/20 05:31:23;;;;;;;17.87;4.63;;;;;;;21.32;54.64;101017.29;125408;1099;104194;-79
2022/07/20 05:33:59;;;;;;;19.83;4.90;;;;;;;21.40;54.31;101011.07;125405;1100;104310;-79
2022/07/20 05:36:36;;;;;;;35.63;6.50;;;;;;;21.48;54.70;101010.16;125329;1099;103715;-79
2022/07/20 05:39:09;;;;;;;16.27;4.77;;;;;;;21.56;53.84;101010.17;125122;1099;104395;-80
2022/07/20 05:41:45;;;;;;;21.73;5.30;;;;;;;21.65;54.38;101010.16;125629;1102;102974;-81
2022/07/20 05:44:18;;;;;;;11.63;3.83;;;;;;;21.72;53.47;101014.61;125367;1102;103100;-80
2022/07/20 05:46:49;;;;;;;25.70;6.08;;;;;;;21.78;53.51;101015.48;125469;1099;102581;-79
2022/07/20 05:49:22;;;;;;;15.37;4.50;;;;;;;21.85;53.20;101007.45;124823;1099;102593;-76
2022/07/20 05:51:55;;;;;;;12.07;4.30;;;;;;;21.93;53.70;101006.55;124716;1099;104194;-77
2022/07/20 05:54:27;;;;;;;10.17;4.03;;;;;;;22.02;53.48;101002.05;124589;1098;104340;-76
2022/07/20 05:56:58;;;;;;;7.80;3.80;;;;;;;22.11;52.44;101003.81;124811;1099;104245;-76
2022/07/20 05:59:32;;;;;;;9.37;3.70;;;;;;;22.21;52.64;100988.63;125144;1099;103820;-76
2022/07/20 06:02:09;;;;;;;10.27;4.50;;;;;;;22.30;52.38;100991.28;125149;1099;104169;-76
2022/07/20 06:04:46;;;;;;;16.70;4.37;;;;;;;22.41;52.72;100993.91;125598;1099;104163;-78
2022/07/20 06:07:18;;;;;;;12.73;5.07;;;;;;;22.51;52.85;100992.06;125836;1099;102637;-77
2022/07/20 06:09:52;;;;;;;12.60;4.97;;;;;;;22.61;51.86;100994.67;125943;1099;104370;-78
2022/07/20 06:12:29;;;;;;;10.30;4.00;;;;;;;22.73;51.43;100987.46;124468;1099;104224;-78
2022/07/20 06:15:00;;;;;;;9.50;4.20;;;;;;;22.80;51.40;100984.73;124652;1099;104437;-79
2022/07/20 06:17:39;;;;;;;10.10;4.23;;;;;;;22.91;51.26;100991.80;125474;1102;102478;-79
2022/07/20 06:20:19;;;;;;;14.50;3.97;;;;;;;23.02;51.46;100978.34;125559;1102;103037;-80
2022/07/20 06:23:07;;;;;;;16.57;5.20;;;;;;;23.11;51.09;100983.66;125562;1102;104478;-80
2022/07/20 06:26:07;;;;;;;11.80;4.20;;;;;;;23.19;50.38;100976.44;125480;1099;104162;-81
2022/07/20 06:28:41;;;;;;;9.07;3.97;;;;;;;23.29;50.60;100972.75;125521;1100;104162;-81
2022/07/20 06:31:26;;;;;;;18.50;5.03;;;;;;;23.42;50.13;100967.28;125356;1100;103288;-83
2022/07/20 06:37:01;;;;;;;12.20;4.50;;;;;;;23.66;49.17;100967.03;125215;1102;104373;-83
2022/07/20 06:39:53;;;;;;;;;;;;;;;;;;;;;
2022/07/20 06:42:40;;;;;;;11.47;4.07;;;;;;;23.91;48.54;100964.11;125159;1099;104357;-81
2022/07/20 06:45:49;;;;;;;11.47;4.23;;;;;;;24.01;47.60;100954.15;126062;1099;104271;-80
2022/07/20 06:48:36;;;;;;;11.90;4.30;;;;;;;24.14;47.71;100962.95;126083;1098;103093;-83
2022/07/20 06:51:20;;;;;;;10.47;4.10;;;;;;;24.27;47.25;100961.85;126183;1099;102754;-81
2022/07/20 06:53:58;;;;;;;13.10;4.20;;;;;;;24.40;46.63;100951.83;125785;1099;103532;-80
2022/07/20 07:00:37;;;;;;;13.08;4.08;;;;;;;24.71;46.40;100933.53;125580;1099;112400;-80
2022/07/20 07:03:53;;;;;;;10.80;4.20;;;;;;;24.85;46.17;100946.70;125546;1099;103368;-82
2022/07/20 07:06:34;;;;;;;8.80;3.70;;;;;;;25.00;45.31;100940.20;125567;1099;104237;-79
2022/07/20 07:09:29;;;;;;;8.43;3.73;;;;;;;25.13;44.76;100935.50;125776;1099;104329;-81
2022/07/20 07:12:34;;;;;;;12.87;4.07;;;;;;;25.26;44.53;100926.31;126034;1099;104108;-81
2022/07/20 07:15:19;;;;;;;10.73;4.40;;;;;;;25.41;44.00;100929.66;126031;1099;102994;-80
2022/07/20 07:17:55;;;;;;;10.73;3.90;;;;;;;25.56;44.19;100917.74;125675;1099;103276;-80
2022/07/20 07:20:49;;;;;;;9.00;3.63;;;;;;;25.68;44.04;100920.19;126066;1098;104216;-81
2022/07/20 07:23:28;;;;;;;10.20;3.80;;;;;;;25.89;43.80;100921.52;126270;1099;104264;-82
2022/07/20 07:26:28;;;;;;;7.13;3.70;;;;;;;26.04;43.55;100903.31;126103;1098;104268;-82
2022/07/20 07:32:24;;;;;;;15.63;4.13;;;;;;;26.41;43.36;100902.48;126080;1098;103225;-80
2022/07/20 07:35:14;;;;;;;13.07;4.53;;;;;;;26.64;42.63;100901.93;125709;1099;103646;-83
2022/07/20 07:37:57;;;;;;;12.97;4.50;;;;;;;26.77;42.12;100900.75;125648;1099;103126;-84
2022/07/20 07:40:57;;;;;;;10.07;3.93;;;;;;;26.96;41.32;100894.86;125607;1099;102247;-80
2022/07/20 07:43:45;;;;;;;10.50;3.95;;;;;;;27.06;41.55;100899.09;125645;1099;103691;-81
2022/07/20 07:46:29;;;;;;;8.77;4.20;;;;;;;27.21;41.07;100901.38;125593;1102;103275;-80
2022/07/20 07:49:07;;;;;;;8.73;3.52;;;;;;;27.32;41.56;100892.17;125644;1099;102729;-81
2022/07/20 07:52:00;;;;;;;8.43;3.77;;;;;;;27.49;39.54;100897.05;125442;1099;104209;-82
2022/07/20 07:54:54;;;;;;;12.03;3.83;;;;;;;27.68;39.90;100892.92;125562;1099;102819;-81
2022/07/20 07:57:30;;;;;;;6.87;3.70;;;;;;;27.86;39.09;100894.20;125947;1099;102461;-80
2022/07/20 08:00:10;;;;;;;7.17;3.70;;;;;;;28.06;38.80;100887.33;126006;1099;102382;-83
2022/07/20 08:02:48;;;;;;;11.00;3.53;;;;;;;28.20;38.55;100890.47;125833;1099;103277;-83
2022/07/20 08:05:42;;;;;;;7.43;3.67;;;;;;;28.32;37.71;100891.91;125800;1099;102742;-83
2022/07/20 08:08:43;;;;;;;8.83;3.90;;;;;;;28.43;38.37;100884.34;125933;1099;102412;-80
2022/07/20 08:11:18;;;;;;;7.23;3.40;;;;;;;28.46;37.80;100873.45;125782;1099;103599;-83
2022/07/20 08:13:55;;;;;;;9.73;3.77;;;;;;;28.54;37.77;100880.42;126304;1099;103476;-80
2022/07/20 08:16:49;;;;;;;8.40;3.77;;;;;;;28.77;36.55;100882.39;125630;1099;103057;-84
2022/07/20 08:19:34;;;;;;;;;;;;;;;;;;;;;
2022/07/20 08:22:18;;;;;;;5.03;3.30;;;;;;;28.98;36.38;100876.21;126069;1099;102894;-81
2022/07/20 08:25:26;;;;;;;8.70;3.57;;;;;;;29.00;34.81;100874.36;126158;1099;104255;-82
2022/07/20 08:28:31;;;;;;;5.93;3.40;;;;;;;29.01;35.22;100869.83;125769;1100;102336;-80
2022/07/20 08:31:21;;;;;;;11.13;3.40;;;;;;;29.02;35.40;100872.48;125989;1099;104657;-81
2022/07/20 08:34:00;;;;;;;8.17;3.90;;;;;;;29.09;34.62;100864.16;125772;1099;108647;-79
2022/07/20 08:36:47;;;;;;;7.70;3.50;;;;;;;29.20;35.14;100864.68;125835;1099;103699;-84
2022/07/20 08:39:29;;;;;;;7.23;3.67;;;;;;;29.31;34.11;100857.09;125626;1102;104134;-81
2022/07/20 08:42:05;;;;;;;7.43;3.53;;;;;;;29.31;33.89;100861.59;125527;1102;104496;-83
2022/07/20 08:44:55;;;;;;;8.27;3.70;;;;;;;29.31;33.94;100865.20;125453;1099;104181;-83
2022/07/20 08:47:47;;;;;;;7.43;3.27;;;;;;;29.36;33.78;100838.88;125628;1099;102447;-82
2022/07/20 08:50:40;;;;;;;8.23;3.30;;;;;;;29.38;33.62;100831.58;125862;1099;104345;-82
2022/07/20 08:53:27;;;;;;;8.43;3.53;;;;;;;29.33;33.63;100833.58;125662;1100;102440;-82
2022/07/20 08:56:17;;;;;;;7.93;3.60;;;;;;;29.33;33.46;100833.58;125440;1102;104191;-81
2022/07/20 08:58:52;;;;;;;5.57;3.77;;;;;;;29.41;33.17;100822.48;125404;1102;104770;-79
2022/07/20 09:01:25;;;;;;;5.60;3.70;;;;;;;29.49;33.70;100824.89;125471;1102;103373;-81
2022/07/20 09:04:28;;;;;;;10.82;3.98;;;;;;;29.53;33.49;100826.52;125558;1102;104169;-84
2022/07/20 09:07:08;;;;;;;10.67;3.63;;;;;;;29.62;33.33;100817.19;125450;1102;102456;-80
2022/07/20 09:10:22;;;;;;;10.23;3.53;;;;;;;29.67;33.36;100810.67;125507;1102;103211;-80
2022/07/20 09:13:18;;;;;;;5.17;3.30;;;;;;;29.65;33.35;100799.02;125689;1102;103513;-82
2022/07/20 09:15:56;;;;;;;9.70;3.60;;;;;;;29.70;33.13;100798.83;126350;1099;103529;-83
2022/07/20 09:18:37;;;;;;;8.43;3.60;;;;;;;29.68;32.44;100817.82;126271;1099;102506;-82
2022/07/20 09:21:43;;;;;;;;;;;;;;;;;;;;;
2022/07/20 09:24:35;;;;;;;7.93;3.77;;;;;;;29.79;32.40;100803.01;126025;1099;102290;-82
2022/07/20 09:27:14;;;;;;;8.33;3.80;;;;;;;29.81;32.65;100801.15;126167;1099;104165;-83
2022/07/20 09:30:11;;;;;;;11.13;4.20;;;;;;;29.79;32.53;100786.78;125861;1099;104632;-80
2022/07/20 09:33:12;;;;;;;8.27;3.73;;;;;;;29.85;32.53;100791.98;126189;1099;102896;-79
2022/07/20 09:36:34;;;;;;;9.67;3.90;;;;;;;29.91;32.52;100786.33;126263;1099;110117;-81
2022/07/20 09:39:26;;;;;;;8.90;3.63;;;;;;;29.92;32.22;100794.38;126233;1099;104268;-82
2022/07/20 09:42:43;;;;;;;8.80;3.53;;;;;;;29.79;32.10;100773.27;126084;1098;101944;-83
2022/07/20 09:45:35;;;;;;;8.37;3.70;;;;;;;29.79;31.93;100775.96;126294;1099;102829;-85
2022/07/20 09:48:25;;;;;;;6.07;3.57;;;;;;;29.76;31.81;100777.86;126276;1099;102373;-81
2022/07/20 09:51:34;;;;;;;10.17;3.83;;;;;;;29.78;31.84;100771.48;126298;1098;104031;-80
2022/07/20 09:54:11;;;;;;;10.83;4.03;;;;;;;29.80;32.14;100762.41;126857;1098;102010;-82
2022/07/20 09:57:03;;;;;;;9.33;3.60;;;;;;;29.85;31.94;100767.64;126715;1099;118258;-82
2022/07/20 09:59:55;;;;;;;5.90;3.60;;;;;;;29.89;32.06;100753.92;126760;1099;102642;-80
2022/07/20 10:02:31;;;;;;;7.63;3.70;;;;;;;29.96;32.07;100751.84;126776;1099;102641;-82
2022/07/20 10:05:12;;;;;;;8.40;3.87;;;;;;;29.98;31.50;100754.48;126637;1099;103078;-81
2022/07/20 10:07:56;;;;;;;5.90;3.87;;;;;;;29.99;31.20;100748.14;126753;1099;102624;-78
2022/07/20 10:10:41;;;;;;;8.23;3.60;;;;;;;29.99;31.39;100740.89;126819;1099;103013;-77
2022/07/20 10:13:29;;;;;;;7.53;3.80;;;;;;;30.03;31.07;100745.25;126758;1098;103011;-80
2022/07/20 10:16:25;;;;;;;5.50;3.20;;;;;;;30.02;30.95;100739.90;126325;1099;103521;-80
2022/07/20 10:19:06;;;;;;;6.77;3.70;;;;;;;29.99;30.93;100735.48;126780;1099;102835;-79
2022/07/20 10:21:52;;;;;;;7.40;3.90;;;;;;;30.04;30.85;100732.59;126368;1099;102659;-79
2022/07/20 10:24:33;;;;;;;8.73;4.03;;;;;;;30.00;30.54;100739.09;126660;1099;102318;-81
2022/07/20 10:27:35;;;;;;;7.57;4.10;;;;;;;29.97;30.71;100731.97;126541;1098;103283;-81
2022/07/20 10:30:21;;;;;;;8.60;4.27;;;;;;;29.92;30.80;100732.16;126880;1098;102888;-82
2022/07/20 10:33:09;;;;;;;11.57;3.90;;;;;;;29.90;30.71;100725.05;126883;1098;102277;-82
2022/07/20 10:35:48;;;;;;;7.40;3.70;;;;;;;29.87;30.85;100715.25;126912;1098;103022;-80
2022/07/20 10:38:27;;;;;;;9.20;4.20;;;;;;;29.84;30.61;100715.37;126120;1102;103288;-83
2022/07/20 10:41:41;;;;;;;10.27;4.00;;;;;;;29.91;30.98;100711.45;126278;1099;102747;-85
2022/07/20 10:47:46;;;;;;;9.33;4.03;;;;;;;30.13;30.85;100698.86;126618;1099;103214;-80
2022/07/20 10:50:25;;;;;;;6.80;3.90;;;;;;;30.21;30.69;100692.16;126809;1099;102104;-82
2022/07/20 10:53:31;;;;;;;;;;;;;;;;;;;;;
2022/07/20 10:56:55;;;;;;;6.70;3.50;;;;;;;30.20;30.42;100700.34;126211;1099;102758;-83
2022/07/20 11:01:35;;;;;;;10.67;3.70;;;;;;;30.21;30.72;100677.75;125592;1102;102776;-81
2022/07/20 11:04:42;;;;;;;9.13;3.70;;;;;;;30.23;30.51;100683.97;125548;1102;102837;-83
2022/07/20 11:07:31;;;;;;;12.00;4.33;;;;;;;30.35;30.33;100678.02;125389;1102;104412;-83
2022/07/20 11:10:33;;;;;;;11.30;3.90;;;;;;;30.39;30.24;100676.98;125293;1105;103766;-80
2022/07/20 11:13:14;;;;;;;14.43;4.23;;;;;;;30.39;29.82;100676.98;125340;1105;102932;-82
2022/07/20 11:16:07;;;;;;;13.13;4.00;;;;;;;30.42;30.16;100667.86;125548;1102;105238;-81
2022/07/20 11:18:59;;;;;;;9.38;3.95;;;;;;;30.44;30.12;100655.99;125358;1102;104994;-80
2022/07/20 11:21:47;;;;;;;6.57;3.70;;;;;;;30.52;30.20;100662.91;125350;1102;104239;-84
2022/07/20 11:24:55;;;;;;;11.07;4.00;;;;;;;30.52;29.89;100661.06;125622;1102;103148;-82
2022/07/20 11:27:44;;;;;;;7.80;3.60;;;;;;;30.55;30.04;100646.52;125511;1102;102871;-83
2022/07/20 11:30:41;;;;;;;14.87;4.13;;;;;;;30.58;29.98;100654.50;125445;1102;104331;-84
2022/07/20 11:33:39;;;;;;;9.53;3.80;;;;;;;30.51;29.78;100659.33;125935;1102;103105;-85
2022/07/20 11:36:37;;;;;;;7.55;3.70;;;;;;;30.56;30.03;100641.04;126178;1102;103052;-83
2022/07/20 11:39:29;;;;;;;6.07;3.60;;;;;;;30.59;30.05;100642.70;126104;1102;103707;-80
2022/07/20 11:42:19;;;;;;;6.13;3.53;;;;;;;30.55;29.98;100633.85;125956;1100;105347;-79
2022/07/20 11:45:48;;;;;;;10.60;3.73;;;;;;;30.55;30.11;100630.28;125398;1102;102996;-81
2022/07/20 11:48:32;;;;;;;8.70;3.70;;;;;;;30.52;30.13;100631.28;125497;1102;104271;-81
2022/07/20 11:51:42;;;;;;;6.07;3.43;;;;;;;30.53;30.01;100635.77;125508;1102;104140;-83
2022/07/20 11:54:25;;;;;;;6.70;3.50;;;;;;;30.42;30.19;100619.14;125338;1102;118917;-81
2022/07/20 12:00:15;;;;;;;6.93;3.53;;;;;;;30.45;29.95;100627.12;125333;1102;104239;-80
2022/07/20 12:06:13;;;;;;;8.60;3.57;;;;;;;30.68;30.18;100615.20;125406;1099;104153;-83
2022/07/20 12:09:22;;;;;;;8.37;4.27;;;;;;;30.80;29.97;100614.63;125470;1099;104239;-80
2022/07/20 12:12:45;;;;;;;9.80;3.87;;;;;;;30.91;29.97;100611.42;125424;1102;104207;-81
2022/07/20 12:16:11;;;;;;;;;;;;;;;;;;;;;
2022/07/20 12:22:00;;;;;;;5.87;3.57;;;;;;;31.11;29.04;100599.66;125451;1102;105445;-80
2022/07/20 12:24:52;;;;;;;5.87;3.50;;;;;;;31.14;28.66;100602.22;125322;1102;104344;-80
2022/07/20 12:27:28;;;;;;;9.67;3.70;;;;;;;31.14;28.99;100585.96;126191;1099;103649;-81
2022/07/20 12:30:31;;;;;;;8.30;3.80;;;;;;;31.22;28.94;100580.17;125517;1099;104364;-80
2022/07/20 12:33:27;;;;;;;7.27;3.67;;;;;;;31.25;28.80;100576.44;125878;1099;104159;-80
2022/07/20 12:36:08;;;;;;;10.90;3.67;;;;;;;31.38;28.85;100565.86;125965;1099;102883;-81
2022/07/20 12:38:46;;;;;;;7.40;3.73;;;;;;;31.52;29.18;100569.64;125961;1099;103469;-79
2022/07/20 12:41:25;;;;;;;6.17;3.70;;;;;;;31.60;28.34;100569.28;125922;1098;102602;-84
2022/07/20 12:44:00;;;;;;;6.95;3.20;;;;;;;31.59;28.31;100563.94;125537;1099;104159;-80